Weather reports worldwide

Advertisment
Torino Venaria, Italy (16060): temperature & dewpoint: 30.03.2020 22:00:00 - 05.04.2020 22:00:00 (CEST)Torino Venaria, Italy (16060): wind speed: 30.03.2020 22:00:00 - 05.04.2020 22:00:00 (CEST)Torino Venaria, Italy (16060): wind direction: 30.03.2020 22:00:00 - 05.04.2020 22:00:00 (CEST)Torino Venaria, Italy (16060): reduced air pressure: 30.03.2020 22:00:00 - 05.04.2020 22:00:00 (CEST)Torino Venaria, Italy (16060): precipitation: 30.03.2020 22:00:00 - 05.04.2020 22:00:00 (CEST)
Date & Time tt [°C] td [°C] ff [km/h] ff [kn] dd ppp [hPa] rr [mm]
05.04.2020 22:00:00 6,1 -2,4 5 3 WNW 1023,1 -
05.04.2020 21:00:00 10,1 -1,7 4 2 NNW 1022,1 -
05.04.2020 20:00:00 14,4 -0,2 5 3 E 1020,8 0,0
05.04.2020 19:00:00 15,5 0,4 9 5 ENE 1020,2 -
05.04.2020 18:00:00 16,0 0,8 9 5 ENE 1020,5 -
05.04.2020 17:00:00 16,1 0,9 8 4 ENE 1020,7 -
05.04.2020 16:00:00 15,9 0,4 8 4 ENE 1021,2 -
05.04.2020 15:00:00 15,4 1,4 11 6 E 1021,8 -
05.04.2020 14:00:00 14,7 0,1 9 5 ENE 1022,3 0,0
05.04.2020 13:00:00 14,2 1,0 5 3 ENE 1023,0 -
05.04.2020 12:00:00 13,1 0,4 8 4 NE 1023,7 -
05.04.2020 11:00:00 11,6 0,0 9 5 ENE 1024,1 -
05.04.2020 10:00:00 10,8 3,0 11 6 NE 1024,0 -
05.04.2020 09:00:00 4,2 4,1 2 1 WNW 1024,4 -
05.04.2020 08:00:00 0,1 -1,1 4 2 NW 1024,4 0,0
05.04.2020 07:00:00 -0,7 -2,3 5 3 NW 1023,8 -
05.04.2020 06:00:00 -0,4 -2,3 5 3 NW 1023,5 -
05.04.2020 05:00:00 1,0 -0,6 4 2 WNW 1023,2 -
05.04.2020 04:00:00 0,8 -1,8 5 3 WNW 1023,0 -
05.04.2020 03:00:00 2,3 0,0 4 2 NW 1023,0 -
05.04.2020 02:00:00 2,6 -0,2 2 1 NW 1023,0 0,0
05.04.2020 01:00:00 2,7 -1,7 5 3 WNW 1022,3 -
05.04.2020 00:00:00 4,5 -0,6 0 0 N 1021,6 -
04.04.2020 23:00:00 5,2 -1,1 4 2 WNW 1020,9 -
04.04.2020 22:00:00 7,3 -1,5 5 3 WNW 1020,2 -
04.04.2020 21:00:00 11,6 -0,7 2 1 N 1018,9 -
04.04.2020 20:00:00 14,8 1,2 8 4 ENE 1017,6 0,0
04.04.2020 19:00:00 16,1 1,7 9 5 ENE 1016,9 -
04.04.2020 18:00:00 16,8 2,3 8 4 ENE 1016,6 -
04.04.2020 17:00:00 17,7 2,3 5 3 ENE 1016,6 -
04.04.2020 16:00:00 17,5 0,5 4 2 SW 1017,1 -
04.04.2020 15:00:00 16,5 2,0 4 2 ENE 1017,6 -
04.04.2020 14:00:00 16,0 2,0 4 2 W 1018,3 0,0
04.04.2020 13:00:00 14,5 0,2 5 3 E 1019,1 -
04.04.2020 12:00:00 13,5 0,7 4 2 WSW 1019,5 -
04.04.2020 11:00:00 11,6 2,0 4 2 ENE 1019,6 -
04.04.2020 10:00:00 8,1 7,2 0 0 N 1019,5 -
04.04.2020 09:00:00 2,5 1,9 2 1 W 1019,7 -
04.04.2020 08:00:00 -1,2 -3,0 4 2 WNW 1019,6 0,0
04.04.2020 07:00:00 -1,0 -3,1 5 3 WNW 1019,0 -
04.04.2020 06:00:00 -0,5 -2,6 5 3 NW 1018,5 -
04.04.2020 05:00:00 -0,8 -3,2 4 2 WNW 1018,1 -
04.04.2020 04:00:00 0,3 -3,0 4 2 WNW 1017,5 -
04.04.2020 03:00:00 1,5 -1,3 9 5 WNW 1017,5 -
04.04.2020 02:00:00 0,8 -2,8 8 4 WNW 1017,3 0,0
04.04.2020 01:00:00 1,4 -3,4 2 1 NNW 1016,6 -
04.04.2020 00:00:00 2,6 -3,8 5 3 W 1015,9 -
03.04.2020 23:00:00 4,9 -2,8 5 3 WNW 1015,0 -
03.04.2020 22:00:00 5,3 -4,1 5 3 WNW 1014,2 -
03.04.2020 21:00:00 10,5 -2,0 4 2 NNW 1013,0 -
03.04.2020 20:00:00 13,3 -0,8 5 3 ENE 1011,8 0,0
03.04.2020 19:00:00 14,9 -1,3 5 3 NE 1010,9 -
03.04.2020 18:00:00 15,5 -0,8 8 4 ENE 1010,4 -
03.04.2020 17:00:00 15,7 -1,1 4 2 ENE 1010,5 -
03.04.2020 16:00:00 15,3 -1,0 9 5 NE 1011,0 -
03.04.2020 15:00:00 15,0 1,4 4 2 S 1011,2 -
03.04.2020 14:00:00 13,7 1,6 4 2 WSW 1011,7 0,0
03.04.2020 13:00:00 12,5 1,1 5 3 W 1012,2 -
03.04.2020 12:00:00 10,8 1,0 5 3 NE 1012,4 -
03.04.2020 11:00:00 9,1 2,6 4 2 E 1012,5 -
03.04.2020 10:00:00 5,5 5,5 0 0 N 1012,6 -
03.04.2020 09:00:00 0,7 0,1 4 2 WNW 1012,8 -
03.04.2020 08:00:00 -2,7 -4,1 2 1 NW 1012,7 0,0
03.04.2020 07:00:00 -3,0 -4,7 4 2 WNW 1012,1 -
03.04.2020 06:00:00 -3,0 -4,7 2 1 WNW 1011,9 -
03.04.2020 05:00:00 -2,3 -4,0 4 2 NW 1011,7 -
03.04.2020 04:00:00 -1,9 -4,1 4 2 WNW 1011,3 -
03.04.2020 03:00:00 -1,7 -3,9 5 3 WNW 1011,5 -
03.04.2020 02:00:00 -0,8 -3,5 4 2 NNW 1011,5 0,0
03.04.2020 01:00:00 0,4 -2,4 4 2 NW 1011,5 -
03.04.2020 00:00:00 1,5 -2,0 4 2 NW 1011,5 -
02.04.2020 23:00:00 1,5 -4,4 4 2 NW 1011,4 -
02.04.2020 22:00:00 3,5 -4,6 4 2 NW 1010,9 -
02.04.2020 21:00:00 6,1 -4,5 2 1 NW 1010,4 -
02.04.2020 20:00:00 10,1 -2,7 4 2 ENE 1009,6 0,0
02.04.2020 19:00:00 11,7 -1,9 2 1 SW 1009,2 -
02.04.2020 18:00:00 12,3 -1,7 5 3 S 1009,4 -
02.04.2020 17:00:00 12,4 -1,6 4 2 ESE 1009,9 -
02.04.2020 16:00:00 12,0 -1,6 8 4 S 1010,6 -
02.04.2020 15:00:00 10,8 -2,4 4 2 E 1011,3 -
02.04.2020 14:00:00 9,4 -3,0 8 4 ENE 1012,3 0,0
02.04.2020 13:00:00 9,2 -2,9 9 5 S 1013,2 -
02.04.2020 12:00:00 8,5 -2,3 5 3 ESE 1013,5 -
02.04.2020 11:00:00 7,2 -0,6 4 2 SE 1014,0 -
02.04.2020 10:00:00 3,5 2,9 2 1 W 1014,4 -
02.04.2020 09:00:00 -0,7 -1,6 2 1 WNW 1014,9 -
02.04.2020 08:00:00 -3,6 -5,5 4 2 NW 1015,4 0,0
02.04.2020 07:00:00 -4,1 -6,8 4 2 NW 1015,3 -
02.04.2020 06:00:00 -1,9 -3,5 2 1 N 1015,3 -
02.04.2020 05:00:00 -2,2 -4,3 2 1 W 1015,8 -
02.04.2020 04:00:00 -0,7 -2,3 4 2 NW 1016,3 -
02.04.2020 03:00:00 -0,8 -2,4 2 1 NW 1016,8 -
02.04.2020 02:00:00 -2,6 -5,0 2 1 W 1017,3 0,0
02.04.2020 01:00:00 -2,2 -5,1 4 2 WNW 1017,4 -
02.04.2020 00:00:00 -1,2 -4,3 4 2 WNW 1017,7 -
01.04.2020 23:00:00 -0,8 -5,1 4 2 NW 1017,5 -
01.04.2020 22:00:00 1,1 -4,2 2 1 NNW 1017,2 -
01.04.2020 21:00:00 2,6 -4,7 0 0 N 1016,7 -
01.04.2020 20:00:00 3,4 -5,4 4 2 W 1016,4 0,0
01.04.2020 19:00:00 7,0 -4,0 5 3 WNW 1016,3 -
01.04.2020 18:00:00 7,2 -4,1 4 2 W 1016,5 -
01.04.2020 17:00:00 7,6 -4,6 5 3 W 1016,9 -
01.04.2020 16:00:00 7,3 -4,0 8 4 WSW 1017,7 -
01.04.2020 15:00:00 7,5 -5,0 8 4 WNW 1018,4 -
01.04.2020 14:00:00 6,9 -5,3 5 3 W 1019,1 0,0
01.04.2020 13:00:00 5,9 -5,6 4 2 SW 1020,1 -
01.04.2020 12:00:00 5,2 -5,6 4 2 ESE 1020,8 -
01.04.2020 11:00:00 4,6 -4,8 5 3 NE 1021,1 -
01.04.2020 10:00:00 3,9 -3,5 4 2 N 1021,1 -
01.04.2020 09:00:00 3,5 -3,0 5 3 NNE 1021,2 -
01.04.2020 08:00:00 3,3 -2,9 5 3 NNE 1021,1 0,0
01.04.2020 07:00:00 3,4 -2,8 5 3 NNE 1020,9 -
01.04.2020 06:00:00 3,5 -1,3 5 3 NE 1020,9 -
01.04.2020 05:00:00 3,7 0,7 4 2 NW 1021,2 -
01.04.2020 04:00:00 3,7 1,2 0 0 N 1021,7 -
01.04.2020 03:00:00 3,9 1,2 2 1 WNW 1021,9 -
01.04.2020 02:00:00 4,1 1,4 4 2 WNW 1022,0 0,0
01.04.2020 01:00:00 4,1 1,4 4 2 WNW 1022,3 -
01.04.2020 00:00:00 4,3 0,8 4 2 NW 1022,2 -
31.03.2020 23:00:00 4,8 -0,5 2 1 NW 1021,7 -
31.03.2020 22:00:00 5,3 -1,5 2 1 NNW 1021,1 -
31.03.2020 21:00:00 5,4 -1,8 2 1 NW 1020,1 -
31.03.2020 20:00:00 5,8 -2,4 2 1 NNW 1019,5 -
31.03.2020 19:00:00 6,0 -3,0 2 1 NE 1019,3 -
31.03.2020 18:00:00 6,4 -1,8 4 2 NW 1019,1 -
31.03.2020 17:00:00 6,2 -1,5 5 3 NW 1019,4 -
31.03.2020 16:00:00 5,8 -1,9 8 4 N 1020,2 -
31.03.2020 15:00:00 5,4 -1,8 9 5 E 1020,8 -
31.03.2020 14:00:00 4,5 -2,5 11 6 E 1021,5 -
31.03.2020 13:00:00 4,3 -2,2 13 7 NE 1021,6 -
31.03.2020 12:00:00 4,0 -0,3 11 6 NE 1021,3 -
31.03.2020 11:00:00 3,6 2,2 5 3 NNW 1021,4 -
31.03.2020 10:00:00 2,5 1,8 11 6 NNE 1021,5 -
31.03.2020 09:00:00 2,5 1,5 8 4 NNE 1020,9 -
31.03.2020 08:00:00 2,8 1,8 5 3 N 1020,2 0,0
31.03.2020 07:00:00 2,8 1,1 9 5 NNE 1019,6 -
31.03.2020 06:00:00 3,3 1,3 16 9 NNE 1019,0 -
31.03.2020 05:00:00 4,0 1,8 13 7 NE 1018,3 -
31.03.2020 04:00:00 4,1 2,3 16 9 NE 1017,7 -
31.03.2020 03:00:00 4,8 2,5 18 10 NE 1017,2 -
31.03.2020 02:00:00 5,7 3,2 21 11 ENE 1016,2 0,0
31.03.2020 01:00:00 6,8 4,6 18 10 ENE 1015,1 -
31.03.2020 00:00:00 7,8 6,1 11 6 NNE 1014,7 -
30.03.2020 23:00:00 8,4 5,8 15 8 NE 1014,1 -
30.03.2020 22:00:00 8,8 5,7 4 2 NE 1013,5 -

tt = temperature
td = dewpoint
ff = wind speed
dd = wind direction
ppp = reduced air pressure
rr = precipitation

Next stations